sensor_id;sensor_type;location;lat;lon;timestamp;P1;durP1;ratioP1;P2;durP2;ratioP2
42084;SDS011;27746;52.228;20.890;2023-03-01T00:00:17;97.97;;;41.40;;
42084;SDS011;27746;52.228;20.890;2023-03-01T00:02:45;91.40;;;43.28;;
42084;SDS011;27746;52.228;20.890;2023-03-01T00:05:11;87.55;;;40.95;;
42084;SDS011;27746;52.228;20.890;2023-03-01T00:07:38;85.93;;;40.53;;
42084;SDS011;27746;52.228;20.890;2023-03-01T00:10:07;89.65;;;42.63;;
42084;SDS011;27746;52.228;20.890;2023-03-01T00:12:35;86.03;;;41.40;;
42084;SDS011;27746;52.228;20.890;2023-03-01T00:15:03;92.07;;;40.78;;
42084;SDS011;27746;52.228;20.890;2023-03-01T00:17:31;81.20;;;38.70;;
42084;SDS011;27746;52.228;20.890;2023-03-01T00:19:58;90.60;;;40.88;;
42084;SDS011;27746;52.228;20.890;2023-03-01T00:22:26;95.25;;;43.58;;
42084;SDS011;27746;52.228;20.890;2023-03-01T00:24:54;92.05;;;42.03;;
42084;SDS011;27746;52.228;20.890;2023-03-01T00:27:22;84.85;;;41.53;;
42084;SDS011;27746;52.228;20.890;2023-03-01T00:29:49;89.65;;;41.80;;
42084;SDS011;27746;52.228;20.890;2023-03-01T00:32:16;83.10;;;41.05;;
42084;SDS011;27746;52.228;20.890;2023-03-01T00:34:43;83.22;;;41.47;;
42084;SDS011;27746;52.228;20.890;2023-03-01T00:37:19;89.45;;;42.75;;
42084;SDS011;27746;52.228;20.890;2023-03-01T00:39:46;87.75;;;41.22;;
42084;SDS011;27746;52.228;20.890;2023-03-01T00:42:13;83.13;;;38.63;;
42084;SDS011;27746;52.228;20.890;2023-03-01T00:44:41;92.85;;;39.47;;
42084;SDS011;27746;52.228;20.890;2023-03-01T00:47:08;78.50;;;38.53;;
42084;SDS011;27746;52.228;20.890;2023-03-01T00:49:35;84.65;;;41.03;;
42084;SDS011;27746;52.228;20.890;2023-03-01T00:52:02;84.35;;;37.60;;
42084;SDS011;27746;52.228;20.890;2023-03-01T00:54:29;87.45;;;38.88;;
42084;SDS011;27746;52.228;20.890;2023-03-01T00:56:56;82.55;;;38.50;;
42084;SDS011;27746;52.228;20.890;2023-03-01T00:59:23;87.70;;;39.22;;
42084;SDS011;27746;52.228;20.890;2023-03-01T01:01:51;85.45;;;40.25;;
42084;SDS011;27746;52.228;20.890;2023-03-01T01:04:18;82.97;;;37.47;;
42084;SDS011;27746;52.228;20.890;2023-03-01T01:06:45;81.43;;;36.80;;
42084;SDS011;27746;52.228;20.890;2023-03-01T01:09:13;79.75;;;39.85;;
42084;SDS011;27746;52.228;20.890;2023-03-01T01:11:43;83.15;;;41.03;;
42084;SDS011;27746;52.228;20.890;2023-03-01T01:14:10;84.57;;;39.70;;
42084;SDS011;27746;52.228;20.890;2023-03-01T01:16:37;81.97;;;38.70;;
42084;SDS011;27746;52.228;20.890;2023-03-01T01:19:06;73.68;;;36.60;;
42084;SDS011;27746;52.228;20.890;2023-03-01T01:21:32;84.53;;;38.60;;
42084;SDS011;27746;52.228;20.890;2023-03-01T01:24:00;84.43;;;37.40;;
42084;SDS011;27746;52.228;20.890;2023-03-01T01:26:29;80.03;;;37.05;;
42084;SDS011;27746;52.228;20.890;2023-03-01T01:28:58;82.80;;;37.67;;
42084;SDS011;27746;52.228;20.890;2023-03-01T01:31:25;84.57;;;36.58;;
42084;SDS011;27746;52.228;20.890;2023-03-01T01:33:53;78.05;;;37.92;;
42084;SDS011;27746;52.228;20.890;2023-03-01T01:36:22;81.20;;;36.13;;
42084;SDS011;27746;52.228;20.890;2023-03-01T01:38:49;78.10;;;36.80;;
42084;SDS011;27746;52.228;20.890;2023-03-01T01:41:17;78.85;;;38.90;;
42084;SDS011;27746;52.228;20.890;2023-03-01T01:43:46;82.38;;;38.53;;
42084;SDS011;27746;52.228;20.890;2023-03-01T01:46:16;80.90;;;38.03;;
42084;SDS011;27746;52.228;20.890;2023-03-01T01:48:50;87.13;;;38.50;;
42084;SDS011;27746;52.228;20.890;2023-03-01T01:51:24;84.50;;;38.80;;
42084;SDS011;27746;52.228;20.890;2023-03-01T01:53:54;83.28;;;36.80;;
42084;SDS011;27746;52.228;20.890;2023-03-01T01:56:26;81.32;;;38.08;;
42084;SDS011;27746;52.228;20.890;2023-03-01T01:58:55;85.43;;;39.22;;
42084;SDS011;27746;52.228;20.890;2023-03-01T02:01:23;82.90;;;37.83;;
42084;SDS011;27746;52.228;20.890;2023-03-01T02:03:50;78.70;;;37.28;;
42084;SDS011;27746;52.228;20.890;2023-03-01T02:06:19;82.63;;;40.08;;
42084;SDS011;27746;52.228;20.890;2023-03-01T02:08:53;81.22;;;38.47;;
42084;SDS011;27746;52.228;20.890;2023-03-01T02:11:23;81.28;;;37.47;;
42084;SDS011;27746;52.228;20.890;2023-03-01T02:13:51;77.75;;;37.97;;
42084;SDS011;27746;52.228;20.890;2023-03-01T02:16:20;87.43;;;39.05;;
42084;SDS011;27746;52.228;20.890;2023-03-01T02:18:47;82.57;;;37.70;;
42084;SDS011;27746;52.228;20.890;2023-03-01T02:21:17;87.90;;;38.60;;
42084;SDS011;27746;52.228;20.890;2023-03-01T02:23:56;84.22;;;39.45;;
42084;SDS011;27746;52.228;20.890;2023-03-01T02:26:28;81.05;;;37.70;;
42084;SDS011;27746;52.228;20.890;2023-03-01T02:29:01;84.35;;;38.03;;
42084;SDS011;27746;52.228;20.890;2023-03-01T02:31:30;80.95;;;37.47;;
42084;SDS011;27746;52.228;20.890;2023-03-01T02:34:11;88.35;;;38.60;;
42084;SDS011;27746;52.228;20.890;2023-03-01T02:36:39;83.43;;;37.85;;
42084;SDS011;27746;52.228;20.890;2023-03-01T02:39:10;83.13;;;36.28;;
42084;SDS011;27746;52.228;20.890;2023-03-01T02:44:13;79.28;;;36.92;;
42084;SDS011;27746;52.228;20.890;2023-03-01T02:46:41;74.20;;;37.58;;
42084;SDS011;27746;52.228;20.890;2023-03-01T02:49:16;77.00;;;37.55;;
42084;SDS011;27746;52.228;20.890;2023-03-01T02:51:47;80.93;;;38.38;;
42084;SDS011;27746;52.228;20.890;2023-03-01T02:54:27;85.18;;;38.13;;
42084;SDS011;27746;52.228;20.890;2023-03-01T02:56:57;81.38;;;36.55;;
42084;SDS011;27746;52.228;20.890;2023-03-01T02:59:27;82.85;;;36.10;;
42084;SDS011;27746;52.228;20.890;2023-03-01T03:01:56;81.50;;;38.33;;
42084;SDS011;27746;52.228;20.890;2023-03-01T03:04:23;79.50;;;37.17;;
42084;SDS011;27746;52.228;20.890;2023-03-01T03:06:50;92.18;;;39.95;;
42084;SDS011;27746;52.228;20.890;2023-03-01T03:09:18;87.43;;;38.63;;
42084;SDS011;27746;52.228;20.890;2023-03-01T03:11:45;83.85;;;37.80;;
42084;SDS011;27746;52.228;20.890;2023-03-01T03:14:13;80.95;;;38.30;;
42084;SDS011;27746;52.228;20.890;2023-03-01T03:16:44;80.57;;;38.58;;
42084;SDS011;27746;52.228;20.890;2023-03-01T03:19:12;80.43;;;37.92;;
42084;SDS011;27746;52.228;20.890;2023-03-01T03:21:39;82.35;;;37.10;;
42084;SDS011;27746;52.228;20.890;2023-03-01T03:24:06;80.78;;;38.83;;
42084;SDS011;27746;52.228;20.890;2023-03-01T03:26:34;82.25;;;36.92;;
42084;SDS011;27746;52.228;20.890;2023-03-01T03:29:01;83.65;;;38.13;;
42084;SDS011;27746;52.228;20.890;2023-03-01T03:31:28;87.80;;;38.28;;
42084;SDS011;27746;52.228;20.890;2023-03-01T03:33:57;84.25;;;38.03;;
42084;SDS011;27746;52.228;20.890;2023-03-01T03:36:24;83.28;;;41.72;;
42084;SDS011;27746;52.228;20.890;2023-03-01T03:38:51;79.35;;;34.10;;
42084;SDS011;27746;52.228;20.890;2023-03-01T03:41:18;80.00;;;40.17;;
42084;SDS011;27746;52.228;20.890;2023-03-01T03:43:45;82.18;;;38.60;;
42084;SDS011;27746;52.228;20.890;2023-03-01T03:46:12;79.00;;;36.92;;
42084;SDS011;27746;52.228;20.890;2023-03-01T03:48:40;81.93;;;39.08;;
42084;SDS011;27746;52.228;20.890;2023-03-01T03:51:11;81.38;;;37.15;;
42084;SDS011;27746;52.228;20.890;2023-03-01T03:53:39;82.07;;;36.80;;
42084;SDS011;27746;52.228;20.890;2023-03-01T03:56:06;89.07;;;38.80;;
42084;SDS011;27746;52.228;20.890;2023-03-01T03:58:33;86.10;;;38.13;;
42084;SDS011;27746;52.228;20.890;2023-03-01T04:01:00;79.88;;;37.95;;
42084;SDS011;27746;52.228;20.890;2023-03-01T04:03:28;77.30;;;39.08;;
42084;SDS011;27746;52.228;20.890;2023-03-01T04:05:56;78.15;;;37.30;;
42084;SDS011;27746;52.228;20.890;2023-03-01T04:08:25;84.53;;;37.33;;
42084;SDS011;27746;52.228;20.890;2023-03-01T04:10:56;78.75;;;36.15;;
42084;SDS011;27746;52.228;20.890;2023-03-01T04:13:25;82.25;;;36.72;;
42084;SDS011;27746;52.228;20.890;2023-03-01T04:15:53;85.47;;;38.53;;
42084;SDS011;27746;52.228;20.890;2023-03-01T04:18:21;79.63;;;38.75;;
42084;SDS011;27746;52.228;20.890;2023-03-01T04:20:48;79.65;;;35.92;;
42084;SDS011;27746;52.228;20.890;2023-03-01T04:23:20;86.75;;;35.72;;
42084;SDS011;27746;52.228;20.890;2023-03-01T04:25:49;90.93;;;37.40;;
42084;SDS011;27746;52.228;20.890;2023-03-01T04:28:19;82.10;;;37.33;;
42084;SDS011;27746;52.228;20.890;2023-03-01T04:30:47;77.07;;;35.20;;
42084;SDS011;27746;52.228;20.890;2023-03-01T04:33:13;87.43;;;38.08;;
42084;SDS011;27746;52.228;20.890;2023-03-01T04:35:41;82.43;;;35.88;;
42084;SDS011;27746;52.228;20.890;2023-03-01T04:38:08;85.57;;;38.88;;
42084;SDS011;27746;52.228;20.890;2023-03-01T04:40:35;86.43;;;37.90;;
42084;SDS011;27746;52.228;20.890;2023-03-01T04:43:04;82.22;;;38.80;;
42084;SDS011;27746;52.228;20.890;2023-03-01T04:45:31;85.20;;;41.78;;
42084;SDS011;27746;52.228;20.890;2023-03-01T04:48:00;77.55;;;37.13;;
42084;SDS011;27746;52.228;20.890;2023-03-01T04:50:28;85.43;;;38.50;;
42084;SDS011;27746;52.228;20.890;2023-03-01T04:52:55;72.78;;;36.42;;
42084;SDS011;27746;52.228;20.890;2023-03-01T04:55:23;82.97;;;39.03;;
42084;SDS011;27746;52.228;20.890;2023-03-01T04:57:51;85.85;;;39.25;;
42084;SDS011;27746;52.228;20.890;2023-03-01T05:00:21;84.13;;;39.00;;
42084;SDS011;27746;52.228;20.890;2023-03-01T05:02:49;82.28;;;37.65;;
42084;SDS011;27746;52.228;20.890;2023-03-01T05:05:23;76.47;;;37.95;;
42084;SDS011;27746;52.228;20.890;2023-03-01T05:07:52;85.32;;;39.10;;
42084;SDS011;27746;52.228;20.890;2023-03-01T05:10:20;83.95;;;38.97;;
42084;SDS011;27746;52.228;20.890;2023-03-01T05:12:48;80.18;;;37.75;;
42084;SDS011;27746;52.228;20.890;2023-03-01T05:15:15;84.03;;;38.40;;
42084;SDS011;27746;52.228;20.890;2023-03-01T05:17:43;85.78;;;37.83;;
42084;SDS011;27746;52.228;20.890;2023-03-01T05:20:11;81.72;;;37.90;;
42084;SDS011;27746;52.228;20.890;2023-03-01T05:22:38;79.72;;;36.03;;
42084;SDS011;27746;52.228;20.890;2023-03-01T05:25:05;77.22;;;35.45;;
42084;SDS011;27746;52.228;20.890;2023-03-01T05:27:33;79.93;;;37.50;;
42084;SDS011;27746;52.228;20.890;2023-03-01T05:30:00;79.07;;;36.55;;
42084;SDS011;27746;52.228;20.890;2023-03-01T05:32:38;79.47;;;36.78;;
42084;SDS011;27746;52.228;20.890;2023-03-01T05:35:08;87.68;;;38.03;;
42084;SDS011;27746;52.228;20.890;2023-03-01T05:37:38;82.20;;;37.35;;
42084;SDS011;27746;52.228;20.890;2023-03-01T05:40:07;80.25;;;36.58;;
42084;SDS011;27746;52.228;20.890;2023-03-01T05:42:40;73.65;;;34.92;;
42084;SDS011;27746;52.228;20.890;2023-03-01T05:45:09;80.05;;;35.75;;
42084;SDS011;27746;52.228;20.890;2023-03-01T05:47:37;83.63;;;37.60;;
42084;SDS011;27746;52.228;20.890;2023-03-01T05:50:04;80.47;;;37.95;;
42084;SDS011;27746;52.228;20.890;2023-03-01T05:52:33;80.18;;;37.67;;
42084;SDS011;27746;52.228;20.890;2023-03-01T05:55:00;79.97;;;38.08;;
42084;SDS011;27746;52.228;20.890;2023-03-01T05:57:27;85.80;;;36.72;;
42084;SDS011;27746;52.228;20.890;2023-03-01T05:59:54;80.78;;;36.33;;
42084;SDS011;27746;52.228;20.890;2023-03-01T06:02:21;75.03;;;35.83;;
42084;SDS011;27746;52.228;20.890;2023-03-01T06:04:48;78.03;;;36.83;;
42084;SDS011;27746;52.228;20.890;2023-03-01T06:07:15;75.25;;;36.03;;
42084;SDS011;27746;52.228;20.890;2023-03-01T06:09:43;72.28;;;35.30;;
42084;SDS011;27746;52.228;20.890;2023-03-01T06:12:10;73.35;;;34.78;;
42084;SDS011;27746;52.228;20.890;2023-03-01T06:14:37;80.28;;;34.90;;
42084;SDS011;27746;52.228;20.890;2023-03-01T06:17:04;85.75;;;36.38;;
42084;SDS011;27746;52.228;20.890;2023-03-01T06:19:31;88.80;;;37.72;;
42084;SDS011;27746;52.228;20.890;2023-03-01T06:21:58;79.50;;;35.63;;
42084;SDS011;27746;52.228;20.890;2023-03-01T06:24:25;76.93;;;36.33;;
42084;SDS011;27746;52.228;20.890;2023-03-01T06:26:55;72.25;;;35.33;;
42084;SDS011;27746;52.228;20.890;2023-03-01T06:29:22;72.13;;;37.13;;
42084;SDS011;27746;52.228;20.890;2023-03-01T06:31:48;77.93;;;34.70;;
42084;SDS011;27746;52.228;20.890;2023-03-01T06:34:15;70.43;;;34.15;;
42084;SDS011;27746;52.228;20.890;2023-03-01T06:36:42;73.20;;;34.38;;
42084;SDS011;27746;52.228;20.890;2023-03-01T06:39:09;74.28;;;33.15;;
42084;SDS011;27746;52.228;20.890;2023-03-01T06:41:36;75.20;;;34.08;;
42084;SDS011;27746;52.228;20.890;2023-03-01T06:44:05;74.13;;;34.30;;
42084;SDS011;27746;52.228;20.890;2023-03-01T06:46:32;76.53;;;34.08;;
42084;SDS011;27746;52.228;20.890;2023-03-01T06:48:59;69.30;;;33.47;;
42084;SDS011;27746;52.228;20.890;2023-03-01T06:51:26;70.68;;;33.03;;
42084;SDS011;27746;52.228;20.890;2023-03-01T06:53:53;69.93;;;32.08;;
42084;SDS011;27746;52.228;20.890;2023-03-01T06:56:19;69.68;;;33.53;;
42084;SDS011;27746;52.228;20.890;2023-03-01T06:58:46;65.63;;;32.78;;
42084;SDS011;27746;52.228;20.890;2023-03-01T07:01:15;66.97;;;31.10;;
42084;SDS011;27746;52.228;20.890;2023-03-01T07:03:42;71.60;;;31.00;;
42084;SDS011;27746;52.228;20.890;2023-03-01T07:06:09;64.95;;;30.67;;
42084;SDS011;27746;52.228;20.890;2023-03-01T07:08:36;74.60;;;34.08;;
42084;SDS011;27746;52.228;20.890;2023-03-01T07:11:03;72.50;;;32.83;;
42084;SDS011;27746;52.228;20.890;2023-03-01T07:13:30;65.18;;;30.52;;
42084;SDS011;27746;52.228;20.890;2023-03-01T07:15:58;58.60;;;32.13;;
42084;SDS011;27746;52.228;20.890;2023-03-01T07:18:26;63.03;;;30.83;;
42084;SDS011;27746;52.228;20.890;2023-03-01T07:20:53;64.15;;;31.40;;
42084;SDS011;27746;52.228;20.890;2023-03-01T07:23:20;62.13;;;29.80;;
42084;SDS011;27746;52.228;20.890;2023-03-01T07:25:51;66.85;;;32.28;;
42084;SDS011;27746;52.228;20.890;2023-03-01T07:28:19;59.13;;;29.95;;
42084;SDS011;27746;52.228;20.890;2023-03-01T07:30:45;61.95;;;29.27;;
42084;SDS011;27746;52.228;20.890;2023-03-01T07:33:12;61.80;;;30.38;;
42084;SDS011;27746;52.228;20.890;2023-03-01T07:35:41;68.22;;;30.75;;
42084;SDS011;27746;52.228;20.890;2023-03-01T07:38:08;60.17;;;29.90;;
42084;SDS011;27746;52.228;20.890;2023-03-01T07:40:35;58.58;;;29.75;;
42084;SDS011;27746;52.228;20.890;2023-03-01T07:43:02;56.03;;;28.08;;
42084;SDS011;27746;52.228;20.890;2023-03-01T07:45:29;58.10;;;27.23;;
42084;SDS011;27746;52.228;20.890;2023-03-01T07:47:56;59.30;;;29.50;;
42084;SDS011;27746;52.228;20.890;2023-03-01T07:50:23;56.20;;;28.63;;
42084;SDS011;27746;52.228;20.890;2023-03-01T07:52:52;56.40;;;30.45;;
42084;SDS011;27746;52.228;20.890;2023-03-01T07:55:18;54.15;;;28.23;;
42084;SDS011;27746;52.228;20.890;2023-03-01T07:57:46;55.72;;;28.52;;
42084;SDS011;27746;52.228;20.890;2023-03-01T08:00:13;60.78;;;29.17;;
42084;SDS011;27746;52.228;20.890;2023-03-01T08:02:43;54.83;;;27.13;;
42084;SDS011;27746;52.228;20.890;2023-03-01T08:05:10;58.22;;;28.00;;
42084;SDS011;27746;52.228;20.890;2023-03-01T08:07:37;57.88;;;27.85;;
42084;SDS011;27746;52.228;20.890;2023-03-01T08:10:06;57.65;;;28.95;;
42084;SDS011;27746;52.228;20.890;2023-03-01T08:12:33;61.28;;;26.75;;
42084;SDS011;27746;52.228;20.890;2023-03-01T08:15:00;54.85;;;27.38;;
42084;SDS011;27746;52.228;20.890;2023-03-01T08:17:27;55.00;;;27.35;;
42084;SDS011;27746;52.228;20.890;2023-03-01T08:19:53;46.63;;;25.80;;
42084;SDS011;27746;52.228;20.890;2023-03-01T08:22:20;52.03;;;26.67;;
42084;SDS011;27746;52.228;20.890;2023-03-01T08:24:50;50.15;;;25.08;;
42084;SDS011;27746;52.228;20.890;2023-03-01T08:27:18;42.28;;;24.42;;
42084;SDS011;27746;52.228;20.890;2023-03-01T08:29:45;54.45;;;26.90;;
42084;SDS011;27746;52.228;20.890;2023-03-01T08:32:12;54.38;;;26.17;;
42084;SDS011;27746;52.228;20.890;2023-03-01T08:34:39;53.75;;;26.90;;
42084;SDS011;27746;52.228;20.890;2023-03-01T08:37:06;51.40;;;26.08;;
42084;SDS011;27746;52.228;20.890;2023-03-01T08:39:33;46.45;;;25.55;;
42084;SDS011;27746;52.228;20.890;2023-03-01T08:42:01;43.95;;;24.55;;
42084;SDS011;27746;52.228;20.890;2023-03-01T08:44:29;45.28;;;25.10;;
42084;SDS011;27746;52.228;20.890;2023-03-01T08:46:56;46.63;;;25.27;;
42084;SDS011;27746;52.228;20.890;2023-03-01T08:49:27;49.10;;;24.13;;
42084;SDS011;27746;52.228;20.890;2023-03-01T08:51:54;46.70;;;25.02;;
42084;SDS011;27746;52.228;20.890;2023-03-01T08:54:21;46.70;;;24.52;;
42084;SDS011;27746;52.228;20.890;2023-03-01T08:56:48;45.72;;;25.38;;
42084;SDS011;27746;52.228;20.890;2023-03-01T08:59:15;44.58;;;24.20;;
42084;SDS011;27746;52.228;20.890;2023-03-01T09:01:45;49.33;;;24.55;;
42084;SDS011;27746;52.228;20.890;2023-03-01T09:04:13;45.50;;;23.98;;
42084;SDS011;27746;52.228;20.890;2023-03-01T09:06:41;42.60;;;23.33;;
42084;SDS011;27746;52.228;20.890;2023-03-01T09:09:12;42.17;;;22.10;;
42084;SDS011;27746;52.228;20.890;2023-03-01T09:11:41;42.20;;;22.35;;
42084;SDS011;27746;52.228;20.890;2023-03-01T09:14:08;42.88;;;22.80;;
42084;SDS011;27746;52.228;20.890;2023-03-01T09:16:35;43.65;;;23.23;;
42084;SDS011;27746;52.228;20.890;2023-03-01T09:19:05;42.70;;;23.70;;
42084;SDS011;27746;52.228;20.890;2023-03-01T09:21:32;48.33;;;23.17;;
42084;SDS011;27746;52.228;20.890;2023-03-01T09:23:59;42.70;;;22.58;;
42084;SDS011;27746;52.228;20.890;2023-03-01T09:26:26;39.08;;;21.40;;
42084;SDS011;27746;52.228;20.890;2023-03-01T09:28:54;39.30;;;21.38;;
42084;SDS011;27746;52.228;20.890;2023-03-01T09:31:25;39.38;;;22.27;;
42084;SDS011;27746;52.228;20.890;2023-03-01T09:33:52;39.85;;;20.88;;
42084;SDS011;27746;52.228;20.890;2023-03-01T09:36:22;36.35;;;21.38;;
42084;SDS011;27746;52.228;20.890;2023-03-01T09:38:51;39.17;;;20.08;;
42084;SDS011;27746;52.228;20.890;2023-03-01T09:41:22;32.38;;;17.95;;
42084;SDS011;27746;52.228;20.890;2023-03-01T09:44:01;40.22;;;20.02;;
42084;SDS011;27746;52.228;20.890;2023-03-01T09:46:36;37.58;;;18.65;;
42084;SDS011;27746;52.228;20.890;2023-03-01T09:49:09;39.47;;;19.73;;
42084;SDS011;27746;52.228;20.890;2023-03-01T09:51:39;32.42;;;18.00;;
42084;SDS011;27746;52.228;20.890;2023-03-01T09:54:06;34.85;;;16.60;;
42084;SDS011;27746;52.228;20.890;2023-03-01T09:56:36;28.45;;;17.00;;
42084;SDS011;27746;52.228;20.890;2023-03-01T09:59:08;29.83;;;16.80;;
42084;SDS011;27746;52.228;20.890;2023-03-01T10:01:46;30.92;;;15.90;;
42084;SDS011;27746;52.228;20.890;2023-03-01T10:04:28;23.65;;;15.45;;
42084;SDS011;27746;52.228;20.890;2023-03-01T10:07:09;28.20;;;16.02;;
42084;SDS011;27746;52.228;20.890;2023-03-01T10:09:46;32.10;;;15.68;;
42084;SDS011;27746;52.228;20.890;2023-03-01T10:12:15;25.60;;;13.95;;
42084;SDS011;27746;52.228;20.890;2023-03-01T10:14:51;22.42;;;14.18;;
42084;SDS011;27746;52.228;20.890;2023-03-01T10:17:25;21.15;;;13.52;;
42084;SDS011;27746;52.228;20.890;2023-03-01T10:19:56;22.05;;;12.93;;
42084;SDS011;27746;52.228;20.890;2023-03-01T10:22:38;22.23;;;14.60;;
42084;SDS011;27746;52.228;20.890;2023-03-01T10:25:05;23.50;;;14.15;;
42084;SDS011;27746;52.228;20.890;2023-03-01T10:27:34;23.73;;;13.35;;
42084;SDS011;27746;52.228;20.890;2023-03-01T10:30:10;20.67;;;13.15;;
42084;SDS011;27746;52.228;20.890;2023-03-01T10:32:42;22.23;;;13.25;;
42084;SDS011;27746;52.228;20.890;2023-03-01T10:35:15;19.95;;;13.40;;
42084;SDS011;27746;52.228;20.890;2023-03-01T10:37:52;22.40;;;13.60;;
42084;SDS011;27746;52.228;20.890;2023-03-01T10:40:23;17.65;;;11.93;;
42084;SDS011;27746;52.228;20.890;2023-03-01T10:42:50;20.05;;;12.38;;
42084;SDS011;27746;52.228;20.890;2023-03-01T10:45:30;17.02;;;11.90;;
42084;SDS011;27746;52.228;20.890;2023-03-01T10:48:08;19.08;;;11.93;;
42084;SDS011;27746;52.228;20.890;2023-03-01T10:50:39;18.48;;;12.70;;
42084;SDS011;27746;52.228;20.890;2023-03-01T10:53:16;20.52;;;12.07;;
42084;SDS011;27746;52.228;20.890;2023-03-01T10:55:48;17.98;;;10.77;;
42084;SDS011;27746;52.228;20.890;2023-03-01T10:58:24;16.25;;;10.65;;
42084;SDS011;27746;52.228;20.890;2023-03-01T11:00:52;18.67;;;11.05;;
42084;SDS011;27746;52.228;20.890;2023-03-01T11:03:21;15.35;;;10.30;;
42084;SDS011;27746;52.228;20.890;2023-03-01T11:06:00;19.52;;;11.15;;
42084;SDS011;27746;52.228;20.890;2023-03-01T11:08:31;15.90;;;10.57;;
42084;SDS011;27746;52.228;20.890;2023-03-01T11:11:05;16.38;;;9.80;;
42084;SDS011;27746;52.228;20.890;2023-03-01T11:13:40;14.52;;;9.65;;
42084;SDS011;27746;52.228;20.890;2023-03-01T11:16:22;16.83;;;10.20;;
42084;SDS011;27746;52.228;20.890;2023-03-01T11:18:56;14.70;;;10.25;;
42084;SDS011;27746;52.228;20.890;2023-03-01T11:21:24;14.50;;;9.98;;
42084;SDS011;27746;52.228;20.890;2023-03-01T11:23:55;13.73;;;10.05;;
42084;SDS011;27746;52.228;20.890;2023-03-01T11:26:25;12.45;;;8.77;;
42084;SDS011;27746;52.228;20.890;2023-03-01T11:28:55;16.38;;;10.50;;
42084;SDS011;27746;52.228;20.890;2023-03-01T11:31:26;15.80;;;10.13;;
42084;SDS011;27746;52.228;20.890;2023-03-01T11:33:56;15.02;;;9.18;;
42084;SDS011;27746;52.228;20.890;2023-03-01T11:36:28;15.20;;;10.27;;
42084;SDS011;27746;52.228;20.890;2023-03-01T11:39:02;14.98;;;9.05;;
42084;SDS011;27746;52.228;20.890;2023-03-01T11:41:37;15.85;;;10.00;;
42084;SDS011;27746;52.228;20.890;2023-03-01T11:44:10;16.92;;;10.13;;
42084;SDS011;27746;52.228;20.890;2023-03-01T11:46:43;17.73;;;9.30;;
42084;SDS011;27746;52.228;20.890;2023-03-01T11:49:32;14.65;;;9.60;;
42084;SDS011;27746;52.228;20.890;2023-03-01T11:52:08;15.40;;;8.77;;
42084;SDS011;27746;52.228;20.890;2023-03-01T11:54:48;14.88;;;9.32;;
42084;SDS011;27746;52.228;20.890;2023-03-01T11:57:26;15.45;;;9.82;;
42084;SDS011;27746;52.228;20.890;2023-03-01T12:00:10;12.82;;;9.30;;
42084;SDS011;27746;52.228;20.890;2023-03-01T12:06:00;17.42;;;9.35;;
42084;SDS011;27746;52.228;20.890;2023-03-01T12:08:59;13.13;;;8.85;;
42084;SDS011;27746;52.228;20.890;2023-03-01T12:11:39;14.10;;;8.38;;
42084;SDS011;27746;52.228;20.890;2023-03-01T12:14:28;14.65;;;9.50;;
42084;SDS011;27746;52.228;20.890;2023-03-01T12:17:13;15.80;;;9.68;;
42084;SDS011;27746;52.228;20.890;2023-03-01T12:20:02;15.18;;;9.82;;
42084;SDS011;27746;52.228;20.890;2023-03-01T12:22:46;19.35;;;10.65;;
42084;SDS011;27746;52.228;20.890;2023-03-01T12:25:25;16.50;;;10.33;;
42084;SDS011;27746;52.228;20.890;2023-03-01T12:28:12;15.70;;;10.73;;
42084;SDS011;27746;52.228;20.890;2023-03-01T12:31:23;20.27;;;10.82;;
42084;SDS011;27746;52.228;20.890;2023-03-01T12:34:24;20.08;;;10.68;;
42084;SDS011;27746;52.228;20.890;2023-03-01T12:37:18;18.23;;;10.50;;
42084;SDS011;27746;52.228;20.890;2023-03-01T12:39:55;18.73;;;11.52;;
42084;SDS011;27746;52.228;20.890;2023-03-01T12:42:31;17.60;;;10.65;;
42084;SDS011;27746;52.228;20.890;2023-03-01T12:45:30;16.70;;;11.50;;
42084;SDS011;27746;52.228;20.890;2023-03-01T12:48:09;19.23;;;11.32;;
42084;SDS011;27746;52.228;20.890;2023-03-01T12:50:51;18.13;;;11.73;;
42084;SDS011;27746;52.228;20.890;2023-03-01T12:53:22;20.38;;;11.75;;
42084;SDS011;27746;52.228;20.890;2023-03-01T12:55:51;18.63;;;11.07;;
42084;SDS011;27746;52.228;20.890;2023-03-01T12:58:23;22.80;;;12.07;;
42084;SDS011;27746;52.228;20.890;2023-03-01T13:01:00;14.93;;;11.18;;
42084;SDS011;27746;52.228;20.890;2023-03-01T13:03:41;17.73;;;10.40;;
42084;SDS011;27746;52.228;20.890;2023-03-01T13:06:19;15.30;;;10.77;;
42084;SDS011;27746;52.228;20.890;2023-03-01T13:08:54;14.95;;;10.23;;
42084;SDS011;27746;52.228;20.890;2023-03-01T13:11:26;14.55;;;10.15;;
42084;SDS011;27746;52.228;20.890;2023-03-01T13:14:00;15.95;;;10.88;;
42084;SDS011;27746;52.228;20.890;2023-03-01T13:17:20;15.73;;;11.13;;
42084;SDS011;27746;52.228;20.890;2023-03-01T13:19:57;14.50;;;9.98;;
42084;SDS011;27746;52.228;20.890;2023-03-01T13:22:25;16.88;;;11.27;;
42084;SDS011;27746;52.228;20.890;2023-03-01T13:25:00;16.13;;;11.15;;
42084;SDS011;27746;52.228;20.890;2023-03-01T13:27:29;14.40;;;10.52;;
42084;SDS011;27746;52.228;20.890;2023-03-01T13:29:58;16.10;;;9.98;;
42084;SDS011;27746;52.228;20.890;2023-03-01T13:32:33;19.23;;;11.13;;
42084;SDS011;27746;52.228;20.890;2023-03-01T13:35:08;19.58;;;10.43;;
42084;SDS011;27746;52.228;20.890;2023-03-01T13:41:11;18.38;;;11.68;;
42084;SDS011;27746;52.228;20.890;2023-03-01T13:43:39;22.80;;;11.57;;
42084;SDS011;27746;52.228;20.890;2023-03-01T13:46:08;16.60;;;11.23;;
42084;SDS011;27746;52.228;20.890;2023-03-01T13:48:40;17.02;;;10.23;;
42084;SDS011;27746;52.228;20.890;2023-03-01T13:51:09;16.95;;;10.98;;
42084;SDS011;27746;52.228;20.890;2023-03-01T13:53:40;18.13;;;10.73;;
42084;SDS011;27746;52.228;20.890;2023-03-01T13:56:10;13.32;;;9.63;;
42084;SDS011;27746;52.228;20.890;2023-03-01T13:58:44;17.40;;;10.85;;
42084;SDS011;27746;52.228;20.890;2023-03-01T14:01:21;17.93;;;10.53;;
42084;SDS011;27746;52.228;20.890;2023-03-01T14:03:51;18.88;;;10.95;;
42084;SDS011;27746;52.228;20.890;2023-03-01T14:06:20;15.85;;;10.65;;
42084;SDS011;27746;52.228;20.890;2023-03-01T14:08:50;17.67;;;10.65;;
42084;SDS011;27746;52.228;20.890;2023-03-01T14:14:41;19.25;;;11.10;;
42084;SDS011;27746;52.228;20.890;2023-03-01T14:17:18;15.90;;;10.50;;
42084;SDS011;27746;52.228;20.890;2023-03-01T14:19:58;20.60;;;11.70;;
42084;SDS011;27746;52.228;20.890;2023-03-01T14:22:29;15.48;;;10.52;;
42084;SDS011;27746;52.228;20.890;2023-03-01T14:25:05;21.20;;;11.25;;
42084;SDS011;27746;52.228;20.890;2023-03-01T14:27:45;16.20;;;10.25;;
42084;SDS011;27746;52.228;20.890;2023-03-01T14:30:24;18.00;;;11.20;;
42084;SDS011;27746;52.228;20.890;2023-03-01T14:32:53;16.58;;;10.15;;
42084;SDS011;27746;52.228;20.890;2023-03-01T14:35:23;17.13;;;10.13;;
42084;SDS011;27746;52.228;20.890;2023-03-01T14:37:51;20.75;;;11.43;;
42084;SDS011;27746;52.228;20.890;2023-03-01T14:40:22;20.63;;;11.32;;